createdAt,value
2018-05-14T00:02:13.921Z,94.67
2018-05-14T00:04:41.477Z,106.07
2018-05-14T00:07:09.040Z,96.57
2018-05-14T00:09:36.603Z,101.87
2018-05-14T00:12:04.179Z,81.47
2018-05-14T00:14:31.736Z,88.37
2018-05-14T00:16:59.335Z,104.30
2018-05-14T00:19:27.655Z,105.00
2018-05-14T00:21:55.226Z,95.10
2018-05-14T00:24:22.792Z,101.20
2018-05-14T00:26:50.414Z,102.40
2018-05-14T00:29:18.029Z,105.67
2018-05-14T00:31:45.599Z,96.50
2018-05-14T00:34:13.232Z,104.83
2018-05-14T00:36:40.798Z,99.17
2018-05-14T00:39:08.351Z,96.20
2018-05-14T00:41:35.988Z,105.80
2018-05-14T00:44:03.576Z,92.50
2018-05-14T00:46:31.187Z,98.57
2018-05-14T00:48:59.551Z,102.73
2018-05-14T00:51:27.184Z,93.73
2018-05-14T00:53:55.022Z,107.53
2018-05-14T00:56:22.687Z,97.03
2018-05-14T00:58:50.251Z,97.83
2018-05-14T01:01:17.828Z,93.97
2018-05-14T01:03:45.403Z,110.43
2018-05-14T01:06:12.955Z,102.07
2018-05-14T01:08:40.541Z,109.13
2018-05-14T01:11:08.105Z,104.13
2018-05-14T01:13:36.447Z,108.73
2018-05-14T01:16:04.023Z,102.87
2018-05-14T01:18:31.600Z,103.50
2018-05-14T01:20:59.936Z,96.17
2018-05-14T01:23:27.518Z,105.57
2018-05-14T01:25:55.085Z,97.93
2018-05-14T01:28:22.692Z,97.50
2018-05-14T01:30:50.277Z,104.10
2018-05-14T01:33:17.827Z,111.03
2018-05-14T01:35:45.407Z,101.17
2018-05-14T01:38:12.960Z,109.03
2018-05-14T01:40:40.545Z,100.87
2018-05-14T01:43:08.109Z,88.03
2018-05-14T01:45:35.678Z,97.73
2018-05-14T01:48:03.220Z,99.20
2018-05-14T01:50:30.780Z,93.37
2018-05-14T01:52:58.338Z,102.53
2018-05-14T01:55:25.929Z,101.43
2018-05-14T01:57:54.428Z,99.47
2018-05-14T02:00:22.076Z,92.40
2018-05-14T02:02:50.397Z,89.10
2018-05-14T02:05:17.974Z,105.87
2018-05-14T02:07:45.549Z,97.50
2018-05-14T02:10:13.112Z,95.03
2018-05-14T02:12:40.670Z,83.70
2018-05-14T02:15:08.299Z,93.37
2018-05-14T02:17:35.871Z,88.77
2018-05-14T02:20:03.419Z,89.03
2018-05-14T02:22:31.039Z,101.40
2018-05-14T02:24:58.573Z,90.57
2018-05-14T02:27:26.143Z,98.67
2018-05-14T02:29:54.596Z,91.87
2018-05-14T02:32:22.204Z,92.57
2018-05-14T02:34:50.533Z,94.90
2018-05-14T02:37:18.109Z,94.07
2018-05-14T02:39:45.671Z,99.80
2018-05-14T02:42:13.306Z,97.67
2018-05-14T02:44:40.887Z,82.57
2018-05-14T02:47:08.469Z,88.63
2018-05-14T02:49:36.051Z,99.07
2018-05-14T02:52:03.667Z,93.60
2018-05-14T02:54:31.273Z,92.90
2018-05-14T02:56:58.851Z,89.90
2018-05-14T02:59:26.410Z,92.37
2018-05-14T03:01:53.984Z,81.50
2018-05-14T03:04:21.627Z,87.93
2018-05-14T03:06:49.187Z,95.70
2018-05-14T03:09:16.760Z,99.60
2018-05-14T03:11:44.340Z,92.37
2018-05-14T03:14:11.969Z,93.80
2018-05-14T03:16:39.524Z,92.07
2018-05-14T03:19:07.109Z,93.50
2018-05-14T03:21:34.804Z,88.77
2018-05-14T03:24:02.416Z,91.07
2018-05-14T03:26:29.962Z,77.80
2018-05-14T03:28:57.534Z,82.20
2018-05-14T03:31:25.122Z,93.03
2018-05-14T03:33:52.803Z,92.50
2018-05-14T03:36:20.451Z,78.70
2018-05-14T03:38:48.005Z,90.27
2018-05-14T03:41:15.577Z,88.33
2018-05-14T03:43:43.144Z,91.83
2018-05-14T03:46:10.715Z,81.80
2018-05-14T03:48:38.275Z,76.57
2018-05-14T03:51:05.854Z,85.07
2018-05-14T03:53:34.262Z,89.47
2018-05-14T03:56:01.925Z,90.03
2018-05-14T03:58:41.299Z,86.13
2018-05-14T04:01:15.777Z,87.57
2018-05-14T04:03:55.135Z,90.87
2018-05-14T04:06:43.548Z,87.60
2018-05-14T04:09:11.236Z,86.93
2018-05-14T04:11:38.799Z,86.17
2018-05-14T04:14:06.554Z,79.23
2018-05-14T04:16:39.048Z,87.57
2018-05-14T04:19:08.240Z,91.17
2018-05-14T04:21:35.819Z,86.07
2018-05-14T04:24:03.380Z,81.43
2018-05-14T04:26:31.014Z,92.90
2018-05-14T04:28:58.556Z,84.90
2018-05-14T04:31:26.140Z,83.67
2018-05-14T04:33:53.697Z,86.13
2018-05-14T04:36:21.253Z,80.60
2018-05-14T04:38:48.835Z,90.63
2018-05-14T04:41:16.409Z,85.40
2018-05-14T04:43:44.135Z,75.80
2018-05-14T04:46:11.803Z,86.37
2018-05-14T04:48:39.407Z,83.10
2018-05-14T04:51:06.980Z,63.77
2018-05-14T04:53:35.305Z,79.60
2018-05-14T04:56:03.003Z,75.57
2018-05-14T04:58:30.580Z,76.77
2018-05-14T05:00:58.956Z,76.10
2018-05-14T05:03:27.288Z,66.60
2018-05-14T05:05:54.835Z,74.93
2018-05-14T05:08:22.417Z,68.90
2018-05-14T05:10:49.979Z,63.23
2018-05-14T05:13:17.563Z,67.20
2018-05-14T05:15:45.116Z,70.27
2018-05-14T05:18:13.451Z,64.20
2018-05-14T05:20:41.012Z,66.43
2018-05-14T05:23:08.582Z,59.87
2018-05-14T05:25:36.152Z,71.20
2018-05-14T05:28:03.747Z,59.37
2018-05-14T05:30:31.301Z,64.83
2018-05-14T05:32:58.904Z,58.37
2018-05-14T05:35:26.474Z,58.13
2018-05-14T05:37:54.030Z,61.27
2018-05-14T05:40:21.605Z,56.27
2018-05-14T05:42:49.185Z,59.57
2018-05-14T05:45:16.757Z,56.60
2018-05-14T05:47:44.447Z,57.87
2018-05-14T05:50:12.928Z,54.83
2018-05-14T05:52:41.247Z,56.13
2018-05-14T05:55:08.867Z,58.13
2018-05-14T05:57:37.208Z,55.03
2018-05-14T06:00:07.521Z,54.23
2018-05-14T06:02:35.071Z,58.80
2018-05-14T06:05:02.669Z,59.40
2018-05-14T06:07:30.297Z,53.27
2018-05-14T06:09:57.815Z,51.10
2018-05-14T06:12:26.342Z,50.23
2018-05-14T06:14:53.879Z,49.67
2018-05-14T06:17:21.446Z,49.83
2018-05-14T06:19:49.007Z,50.63
2018-05-14T06:22:16.675Z,51.20
2018-05-14T06:24:44.220Z,47.93
2018-05-14T06:27:11.800Z,45.57
2018-05-14T06:29:39.352Z,50.67
2018-05-14T06:32:06.929Z,49.07
2018-05-14T06:34:34.495Z,46.87
2018-05-14T06:37:02.196Z,56.10
2018-05-14T06:39:30.840Z,49.73
2018-05-14T06:41:58.576Z,48.80
2018-05-14T06:44:26.248Z,49.83
2018-05-14T06:46:53.761Z,48.03
2018-05-14T06:49:21.463Z,54.73
2018-05-14T06:51:49.028Z,45.53
2018-05-14T06:54:16.588Z,51.40
2018-05-14T06:56:44.137Z,46.73
2018-05-14T06:59:11.722Z,50.67
2018-05-14T07:01:39.264Z,48.00
2018-05-14T07:04:06.839Z,44.03
2018-05-14T07:06:34.406Z,46.50
2018-05-14T07:09:02.036Z,48.47
2018-05-14T07:11:29.632Z,43.23
2018-05-14T07:13:57.343Z,46.87
2018-05-14T07:16:25.665Z,47.17
2018-05-14T07:18:53.401Z,45.17
2018-05-14T07:21:21.078Z,47.43
2018-05-14T07:23:48.760Z,43.90
2018-05-14T07:26:16.384Z,46.43
2018-05-14T07:28:44.101Z,43.70
2018-05-14T07:31:11.845Z,49.13
2018-05-14T07:33:39.487Z,49.57
2018-05-14T07:36:07.064Z,41.70
2018-05-14T07:38:34.632Z,45.30
2018-05-14T07:41:02.208Z,45.53
2018-05-14T07:43:29.775Z,45.67
2018-05-14T07:45:57.373Z,45.33
2018-05-14T07:48:24.924Z,44.07
2018-05-14T07:50:52.495Z,48.33
2018-05-14T07:53:20.037Z,50.90
2018-05-14T07:55:48.396Z,49.00
2018-05-14T07:58:16.003Z,47.37
2018-05-14T08:00:43.580Z,48.47
2018-05-14T08:03:11.229Z,42.40
2018-05-14T08:05:38.909Z,45.47
2018-05-14T08:08:06.383Z,49.80
2018-05-14T08:10:33.950Z,48.90
2018-05-14T08:13:01.521Z,49.53
2018-05-14T08:15:29.200Z,46.30
2018-05-14T08:17:57.558Z,46.93
2018-05-14T08:20:25.112Z,42.37
2018-05-14T08:22:52.695Z,48.27
2018-05-14T08:25:21.086Z,48.03
2018-05-14T08:27:49.456Z,45.20
2018-05-14T08:30:17.786Z,50.40
2018-05-14T08:32:45.334Z,46.23
2018-05-14T08:35:12.922Z,46.63
2018-05-14T08:37:40.464Z,46.17
2018-05-14T08:40:08.088Z,46.87
2018-05-14T08:42:35.638Z,47.53
2018-05-14T08:45:03.964Z,47.77
2018-05-14T08:47:31.519Z,49.03
2018-05-14T08:49:59.107Z,49.30
2018-05-14T08:52:26.661Z,48.93
2018-05-14T08:54:54.240Z,43.37
2018-05-14T08:57:21.863Z,49.03
2018-05-14T08:59:49.411Z,48.53
2018-05-14T09:02:16.980Z,49.77
2018-05-14T09:04:44.555Z,49.00
2018-05-14T09:07:12.242Z,46.63
2018-05-14T09:09:40.576Z,47.50
2018-05-14T09:12:08.132Z,44.03
2018-05-14T09:14:35.708Z,44.17
2018-05-14T09:17:03.283Z,45.00
2018-05-14T09:19:30.935Z,43.20
2018-05-14T09:21:59.252Z,40.57
2018-05-14T09:24:27.663Z,43.07
2018-05-14T09:26:55.239Z,40.87
2018-05-14T09:29:22.792Z,42.47
2018-05-14T09:31:50.360Z,40.50
2018-05-14T09:34:18.011Z,43.37
2018-05-14T09:36:45.567Z,41.80
2018-05-14T09:39:13.195Z,45.03
2018-05-14T09:41:41.536Z,43.83
2018-05-14T09:44:09.112Z,43.53
2018-05-14T09:46:36.688Z,39.17
2018-05-14T09:49:05.012Z,42.37
2018-05-14T09:51:32.573Z,40.50
2018-05-14T09:54:00.131Z,39.70
2018-05-14T09:56:27.867Z,39.43
2018-05-14T09:58:55.437Z,41.77
2018-05-14T10:01:23.108Z,41.10
2018-05-14T10:03:50.676Z,44.00
2018-05-14T10:06:18.276Z,43.73
2018-05-14T10:08:45.895Z,42.53
2018-05-14T10:11:13.496Z,42.87
2018-05-14T10:13:41.133Z,43.70
2018-05-14T10:16:09.387Z,44.30
2018-05-14T10:18:37.064Z,42.03
2018-05-14T10:21:04.678Z,44.83
2018-05-14T10:23:33.002Z,46.93
2018-05-14T10:26:00.608Z,39.13
2018-05-14T10:28:28.256Z,44.93
2018-05-14T10:30:55.811Z,42.67
2018-05-14T10:33:23.383Z,42.83
2018-05-14T10:35:50.950Z,43.80
2018-05-14T10:38:18.527Z,44.13
2018-05-14T10:40:46.914Z,40.90
2018-05-14T10:43:15.980Z,43.67
2018-05-14T10:45:43.613Z,40.80
2018-05-14T10:48:11.163Z,42.37
2018-05-14T10:50:38.828Z,43.80
2018-05-14T10:53:06.474Z,44.13
2018-05-14T10:55:34.059Z,42.10
2018-05-14T10:58:01.629Z,39.83
2018-05-14T11:00:29.204Z,41.20
2018-05-14T11:02:56.747Z,41.43
2018-05-14T11:05:24.339Z,39.63
2018-05-14T11:07:51.876Z,37.80
2018-05-14T11:10:19.591Z,37.77
2018-05-14T11:12:47.160Z,36.47
2018-05-14T11:15:14.869Z,36.20
2018-05-14T11:17:42.484Z,39.43
2018-05-14T11:20:10.087Z,36.10
2018-05-14T11:22:37.639Z,32.33
2018-05-14T11:25:05.311Z,33.40
2018-05-14T11:27:32.958Z,35.17
2018-05-14T11:30:00.487Z,36.00
2018-05-14T11:32:28.075Z,34.53
2018-05-14T11:34:55.632Z,38.70
2018-05-14T11:37:23.223Z,35.63
2018-05-14T11:39:50.788Z,33.47
2018-05-14T11:42:19.358Z,32.53
2018-05-14T11:44:46.898Z,31.60
2018-05-14T11:47:14.491Z,35.43
2018-05-14T11:49:42.811Z,34.97
2018-05-14T11:52:10.560Z,39.20
2018-05-14T11:54:39.038Z,36.03
2018-05-14T11:57:06.596Z,36.03
2018-05-14T11:59:34.920Z,36.20
2018-05-14T12:02:02.496Z,32.27
2018-05-14T12:04:30.060Z,33.67
2018-05-14T12:06:59.307Z,32.60
2018-05-14T12:09:26.873Z,29.77
2018-05-14T12:11:54.438Z,30.67
2018-05-14T12:14:22.184Z,30.23
2018-05-14T12:16:49.758Z,29.97
2018-05-14T12:19:17.336Z,26.70
2018-05-14T12:21:44.895Z,27.93
2018-05-14T12:24:12.479Z,24.50
2018-05-14T12:26:40.070Z,24.73
2018-05-14T12:29:08.530Z,24.57
2018-05-14T12:31:36.098Z,22.80
2018-05-14T12:34:03.640Z,20.00
2018-05-14T12:36:31.291Z,16.27
2018-05-14T12:38:58.856Z,17.03
2018-05-14T12:41:26.427Z,15.43
2018-05-14T12:43:54.012Z,16.03
2018-05-14T12:46:22.328Z,15.23
2018-05-14T12:48:49.898Z,14.70
2018-05-14T12:51:17.502Z,13.07
2018-05-14T12:53:45.100Z,14.87
2018-05-14T12:56:12.707Z,13.70
2018-05-14T12:58:40.424Z,14.37
2018-05-14T13:01:08.042Z,14.20
2018-05-14T13:03:35.584Z,13.47
2018-05-14T13:06:03.270Z,14.70
2018-05-14T13:08:30.859Z,14.33
2018-05-14T13:10:58.457Z,13.53
2018-05-14T13:13:26.127Z,12.83
2018-05-14T13:15:53.862Z,12.30
2018-05-14T13:18:21.416Z,12.13
2018-05-14T13:20:49.060Z,11.97
2018-05-14T13:23:17.367Z,11.87
2018-05-14T13:25:44.958Z,12.20
2018-05-14T13:28:12.531Z,11.30
2018-05-14T13:30:40.960Z,10.57
2018-05-14T13:33:08.512Z,10.40
2018-05-14T13:35:36.152Z,10.03
2018-05-14T13:38:04.720Z,9.10
2018-05-14T13:40:32.032Z,8.43
2018-05-14T13:42:59.679Z,8.03
2018-05-14T13:45:27.217Z,8.60
2018-05-14T13:47:54.796Z,8.10
2018-05-14T13:50:22.360Z,8.10
2018-05-14T13:52:49.945Z,6.83
2018-05-14T13:55:17.492Z,8.07
2018-05-14T13:57:45.183Z,7.30
2018-05-14T14:00:12.909Z,7.30
2018-05-14T14:02:40.571Z,6.97
2018-05-14T14:05:08.161Z,6.43
2018-05-14T14:07:35.732Z,7.30
2018-05-14T14:10:03.284Z,6.90
2018-05-14T14:12:30.876Z,6.67
2018-05-14T14:14:59.193Z,6.50
2018-05-14T14:17:26.894Z,6.07
2018-05-14T14:19:54.474Z,6.13
2018-05-14T14:22:22.036Z,6.13
2018-05-14T14:24:50.488Z,6.10
2018-05-14T14:27:18.052Z,5.57
2018-05-14T14:29:45.763Z,5.63
2018-05-14T14:32:13.239Z,5.70
2018-05-14T14:34:40.809Z,6.00
2018-05-14T14:37:08.395Z,5.45
2018-05-14T14:39:36.068Z,4.80
2018-05-14T14:42:03.675Z,5.20
2018-05-14T14:44:31.986Z,4.93
2018-05-14T14:46:59.532Z,5.50
2018-05-14T14:49:27.141Z,5.90
2018-05-14T14:51:54.683Z,5.93
2018-05-14T14:54:22.310Z,5.73
2018-05-14T14:56:49.878Z,6.23
2018-05-14T14:59:17.543Z,5.47
2018-05-14T15:01:45.121Z,5.17
2018-05-14T15:04:12.735Z,4.73
2018-05-14T15:06:40.303Z,5.10
2018-05-14T15:09:07.863Z,4.87
2018-05-14T15:11:35.430Z,4.80
2018-05-14T15:14:02.987Z,4.60
2018-05-14T15:16:30.553Z,5.27
2018-05-14T15:18:58.128Z,4.30
2018-05-14T15:21:25.696Z,4.17
2018-05-14T15:23:53.284Z,3.97
2018-05-14T15:26:21.616Z,4.30
2018-05-14T15:28:49.220Z,4.10
2018-05-14T15:31:17.539Z,4.37
2018-05-14T15:33:45.104Z,4.97
2018-05-14T15:36:12.688Z,4.07
2018-05-14T15:38:40.244Z,4.20
2018-05-14T15:41:07.810Z,3.97
2018-05-14T15:43:35.370Z,4.37
2018-05-14T15:46:02.916Z,4.23
2018-05-14T15:48:30.502Z,4.17
2018-05-14T15:50:58.047Z,4.50
2018-05-14T15:53:25.614Z,4.27
2018-05-14T15:55:53.152Z,4.10
2018-05-14T15:58:20.776Z,4.73
2018-05-14T16:00:48.377Z,4.17
2018-05-14T16:03:16.068Z,4.17
2018-05-14T16:05:43.671Z,4.03
2018-05-14T16:08:11.310Z,4.43
2018-05-14T16:10:38.876Z,4.50
2018-05-14T16:13:07.244Z,4.10
2018-05-14T16:15:35.635Z,4.10
2018-05-14T16:18:03.968Z,3.90
2018-05-14T16:20:31.576Z,3.78
2018-05-14T16:23:00.037Z,3.90
2018-05-14T16:25:27.586Z,4.30
2018-05-14T16:27:55.143Z,4.20
2018-05-14T16:30:22.699Z,4.37
2018-05-14T16:32:50.251Z,3.70
2018-05-14T16:35:17.807Z,4.13
2018-05-14T16:37:45.352Z,4.57
2018-05-14T16:40:12.924Z,4.40
2018-05-14T16:42:40.574Z,4.20
2018-05-14T16:45:08.125Z,4.43
2018-05-14T16:47:35.743Z,4.30
2018-05-14T16:50:03.288Z,4.13
2018-05-14T16:52:30.837Z,4.20
2018-05-14T16:54:58.548Z,4.87
2018-05-14T16:57:26.119Z,4.30
2018-05-14T16:59:53.736Z,4.37
2018-05-14T17:02:21.336Z,4.50
2018-05-14T17:04:48.918Z,3.77
2018-05-14T17:07:16.459Z,4.40
2018-05-14T17:09:44.059Z,4.37
2018-05-14T17:12:11.592Z,4.30
2018-05-14T17:14:39.284Z,4.60
2018-05-14T17:17:06.835Z,4.00
2018-05-14T17:19:34.392Z,4.30
2018-05-14T17:22:02.006Z,4.27
2018-05-14T17:24:30.332Z,4.30
2018-05-14T17:26:57.884Z,4.70
2018-05-14T17:29:25.435Z,4.10
2018-05-14T17:31:53.002Z,4.00
2018-05-14T17:34:20.590Z,4.10
2018-05-14T17:36:48.155Z,3.83
2018-05-14T17:39:15.753Z,4.37
2018-05-14T17:41:43.344Z,4.07
2018-05-14T17:44:10.916Z,4.10
2018-05-14T17:46:38.565Z,4.00
2018-05-14T17:49:06.168Z,3.80
2018-05-14T17:51:33.784Z,3.80
2018-05-14T17:54:01.466Z,4.70
2018-05-14T17:56:29.041Z,4.17
2018-05-14T17:58:56.624Z,4.30
2018-05-14T18:01:24.228Z,3.90
2018-05-14T18:03:51.860Z,3.90
2018-05-14T18:06:20.248Z,4.50
2018-05-14T18:08:48.685Z,4.50
2018-05-14T18:11:16.319Z,4.93
2018-05-14T18:13:43.924Z,4.60
2018-05-14T18:16:12.297Z,4.30
2018-05-14T18:18:40.418Z,4.63
2018-05-14T18:21:12.078Z,4.37
2018-05-14T18:23:45.301Z,4.87
2018-05-14T18:26:17.614Z,4.60
2018-05-14T18:28:48.935Z,4.60
2018-05-14T18:31:22.187Z,4.00
2018-05-14T18:33:49.768Z,4.20
2018-05-14T18:36:17.433Z,4.53
2018-05-14T18:38:45.116Z,4.67
2018-05-14T18:41:13.495Z,5.33
2018-05-14T18:43:41.104Z,4.53
2018-05-14T18:46:08.678Z,5.10
2018-05-14T18:48:36.385Z,4.10
2018-05-14T18:51:04.016Z,4.97
2018-05-14T18:53:31.627Z,4.70
2018-05-14T18:55:59.952Z,8.90
2018-05-14T18:58:27.563Z,4.40
2018-05-14T19:00:55.936Z,5.10
2018-05-14T19:03:24.264Z,5.67
2018-05-14T19:05:51.834Z,5.93
2018-05-14T19:08:19.429Z,5.87
2018-05-14T19:10:52.771Z,5.90
2018-05-14T19:13:20.371Z,6.57
2018-05-14T19:15:53.594Z,5.93
2018-05-14T19:18:21.151Z,6.27
2018-05-14T19:20:49.558Z,6.43
2018-05-14T19:23:22.688Z,5.93
2018-05-14T19:25:50.282Z,7.00
2018-05-14T19:28:24.280Z,6.30
2018-05-14T19:30:51.885Z,6.90
2018-05-14T19:33:24.971Z,6.40
2018-05-14T19:36:00.079Z,5.77
2018-05-14T19:38:27.642Z,6.40
2018-05-14T19:40:55.970Z,5.50
2018-05-14T19:43:23.612Z,5.37
2018-05-14T19:45:51.197Z,5.50
2018-05-14T19:48:18.760Z,5.13
2018-05-14T19:50:46.440Z,5.43
2018-05-14T19:53:13.999Z,6.10
2018-05-14T19:55:41.608Z,5.60
2018-05-14T19:58:09.120Z,5.33
2018-05-14T20:00:36.768Z,5.50
2018-05-14T20:03:04.359Z,4.83
2018-05-14T20:05:31.907Z,5.23
2018-05-14T20:07:59.503Z,5.50
2018-05-14T20:10:27.080Z,5.27
2018-05-14T20:12:54.741Z,5.40
2018-05-14T20:15:22.208Z,5.40
2018-05-14T20:17:49.872Z,5.80
2018-05-14T20:20:17.444Z,6.03
2018-05-14T20:22:45.067Z,5.90
2018-05-14T20:25:12.627Z,6.20
2018-05-14T20:27:40.209Z,6.63
2018-05-14T20:30:08.673Z,6.27
2018-05-14T20:32:36.331Z,6.10
2018-05-14T20:35:03.872Z,5.33
2018-05-14T20:37:32.276Z,5.40
2018-05-14T20:40:00.774Z,5.03
2018-05-14T20:42:28.422Z,5.50
2018-05-14T20:44:55.997Z,5.37
2018-05-14T20:47:23.584Z,5.50
2018-05-14T20:49:51.178Z,4.83
2018-05-14T20:52:19.499Z,4.37
2018-05-14T20:54:47.064Z,4.83
2018-05-14T20:57:14.643Z,4.37
2018-05-14T20:59:42.280Z,4.67
2018-05-14T21:02:10.565Z,4.53
2018-05-14T21:04:38.149Z,5.03
2018-05-14T21:07:05.701Z,4.40
2018-05-14T21:09:33.275Z,4.17
2018-05-14T21:12:00.814Z,4.47
2018-05-14T21:14:28.388Z,4.40
2018-05-14T21:16:55.953Z,4.47
2018-05-14T21:19:23.496Z,4.37
2018-05-14T21:21:51.067Z,4.53
2018-05-14T21:24:18.821Z,4.30
2018-05-14T21:26:46.392Z,4.10
2018-05-14T21:29:13.943Z,4.27
2018-05-14T21:31:41.522Z,4.33
2018-05-14T21:34:09.076Z,4.10
2018-05-14T21:36:36.656Z,4.07
2018-05-14T21:39:05.605Z,4.30
2018-05-14T21:41:33.233Z,4.10
2018-05-14T21:44:00.914Z,4.17
2018-05-14T21:46:28.472Z,4.03
2018-05-14T21:48:56.022Z,4.80
2018-05-14T21:51:23.627Z,4.60
2018-05-14T21:53:52.700Z,4.70
2018-05-14T21:56:20.273Z,4.17
2018-05-14T21:58:47.887Z,4.97
2018-05-14T22:01:15.521Z,4.37
2018-05-14T22:03:44.018Z,4.63
2018-05-14T22:06:12.553Z,4.20
2018-05-14T22:08:40.152Z,4.10
2018-05-14T22:11:08.507Z,4.40
2018-05-14T22:13:36.204Z,4.57
2018-05-14T22:16:03.832Z,4.30
2018-05-14T22:18:31.408Z,4.93
2018-05-14T22:20:58.979Z,4.97
2018-05-14T22:23:27.396Z,4.53
2018-05-14T22:25:55.032Z,4.60
2018-05-14T22:28:22.670Z,4.40
2018-05-14T22:30:50.235Z,4.37
2018-05-14T22:33:17.846Z,4.83
2018-05-14T22:35:45.440Z,4.90
2018-05-14T22:38:13.040Z,4.33
2018-05-14T22:40:40.611Z,4.97
2018-05-14T22:43:08.158Z,4.87
2018-05-14T22:45:35.731Z,4.80
2018-05-14T22:48:03.321Z,4.40
2018-05-14T22:50:30.876Z,4.40
2018-05-14T22:52:58.464Z,4.80
2018-05-14T22:55:26.792Z,4.60
2018-05-14T22:57:54.460Z,5.17
2018-05-14T23:00:24.800Z,4.60
2018-05-14T23:02:52.361Z,5.17
2018-05-14T23:05:19.963Z,5.13
2018-05-14T23:07:48.295Z,5.50
2018-05-14T23:10:15.865Z,5.07
2018-05-14T23:12:43.488Z,5.37
2018-05-14T23:15:11.060Z,5.83
2018-05-14T23:17:38.613Z,5.60
2018-05-14T23:20:06.212Z,5.50
2018-05-14T23:22:41.657Z,5.13
2018-05-14T23:25:09.244Z,5.30
2018-05-14T23:27:36.804Z,5.30
2018-05-14T23:30:04.349Z,6.03
2018-05-14T23:32:31.980Z,5.13
2018-05-14T23:34:59.552Z,5.33
2018-05-14T23:37:27.112Z,5.70
2018-05-14T23:39:54.911Z,5.00
2018-05-14T23:42:22.490Z,4.57
2018-05-14T23:44:50.975Z,4.73
2018-05-14T23:47:18.548Z,5.23
2018-05-14T23:49:46.133Z,4.50
2018-05-14T23:52:13.724Z,4.80
2018-05-14T23:54:41.334Z,4.33
2018-05-14T23:57:08.911Z,4.17
2018-05-14T23:59:36.467Z,4.63
